Date,TemperatureHighF,TemperatureAvgF,TemperatureLowF,DewpointHighF,DewpointAvgF,DewpointLowF,HumidityHigh,HumidityAvg,HumidityLow,PressureMaxIn,PressureMinIn,WindSpeedMaxMPH,WindSpeedAvgMPH,GustSpeedMaxMPH,PrecipitationSumIn
2013-1-1,34.3,31.4,24.4,34.3,29.8,19.5,100,94,76,0.00,0.00,0,0,0,0.00
2013-1-2,31.1,23.2,15.4,30.0,16.2,5.5,100,77,45,0.00,0.00,0,0,0,0.00
2013-1-3,39.0,26.4,16.5,23.8,15.3,7.4,80,64,30,0.00,0.00,0,0,0,0.00
2013-1-4,40.3,31.5,27.9,25.8,20.6,10.9,80,65,33,0.00,0.00,0,0,0,0.04
2013-1-5,42.4,32.8,24.6,32.2,24.6,18.6,100,74,43,0.00,0.00,0,0,0,0.04
2013-1-6,38.1,33.7,27.3,33.8,28.6,23.0,93,82,73,0.00,0.00,0,0,0,0.04
2013-1-7,40.3,31.2,21.9,33.5,24.6,21.3,100,79,48,0.00,0.00,0,0,0,0.00
2013-1-8,49.8,36.5,26.4,32.2,27.3,22.9,100,74,35,0.00,0.00,0,0,0,0.00
2013-1-9,57.9,45.7,37.2,53.4,36.8,27.6,100,73,50,0.00,0.00,0,0,0,0.04
2013-1-10,45.5,37.2,31.1,44.8,36.1,30.8,100,96,76,0.00,0.00,0,0,0,0.00
2013-1-11,62.6,54.5,45.5,60.3,50.8,43.1,100,88,63,0.00,0.00,0,0,0,126.97
2013-1-12,66.0,60.9,52.5,66.0,59.8,50.7,100,96,86,0.00,0.00,0,0,0,0.00
2013-1-13,66.7,55.5,35.2,66.0,55.1,35.2,100,99,76,0.00,0.00,0,0,0,0.00
2013-1-14,35.2,27.0,23.5,35.2,25.6,21.6,100,94,82,0.00,0.00,0,0,0,0.00
2013-1-15,32.5,28.0,22.5,26.6,24.6,22.3,100,88,74,0.00,0.00,0,0,0,0.00
2013-1-16,36.9,32.9,30.9,34.3,28.3,22.9,99,84,60,0.00,0.00,0,0,0,0.00
2013-1-17,44.8,33.8,26.4,32.2,25.4,13.8,97,74,33,0.00,0.00,0,0,0,0.00
2013-1-18,39.9,30.6,19.2,24.8,15.2,7.0,97,58,30,0.00,0.00,0,0,0,0.00
2013-1-19,54.3,45.7,37.4,23.7,17.4,13.4,56,33,24,0.00,0.00,0,0,0,0.00
2013-1-20,46.8,34.4,25.7,34.8,11.1,0.6,69,38,28,0.00,0.00,0,0,0,0.00
2013-1-21,25.7,21.2,11.1,17.8,4.8,-8.2,82,50,32,0.00,0.00,0,0,0,0.00
2013-1-22,21.6,13.4,5.9,-2.2,-7.9,-12.8,45,37,32,0.00,0.00,0,0,0,0.00
2013-1-23,21.9,17.7,10.9,-0.2,-4.0,-8.6,45,37,32,0.00,0.00,0,0,0,0.00
2013-1-24,23.9,19.7,13.6,7.9,-0.6,-5.7,65,42,32,0.00,0.00,0,0,0,0.00
2013-1-25,26.1,22.5,18.9,21.6,11.3,-2.3,87,65,37,0.00,0.00,0,0,0,0.00
2013-1-26,34.5,25.0,19.4,23.3,18.1,8.0,100,78,37,0.00,0.00,0,0,0,0.00
2013-1-27,37.4,29.0,20.5,36.1,22.4,16.2,100,77,54,0.00,0.00,0,0,0,0.47
2013-1-28,54.9,48.4,36.1,54.9,48.1,36.1,100,99,82,0.00,0.00,0,0,0,0.00
2013-1-29,63.1,58.0,54.1,60.0,56.0,54.1,100,94,76,0.00,0.00,0,0,0,0.00